sensor_id;sensor_type;location;lat;lon;timestamp;temperature;humidity
27823;DHT22;29019;47.630;8.262;2024-03-17T00:03:18;19.60;47.40
27823;DHT22;29019;47.630;8.262;2024-03-17T00:07:19;19.50;47.50
27823;DHT22;29019;47.630;8.262;2024-03-17T00:11:19;19.50;47.30
27823;DHT22;29019;47.630;8.262;2024-03-17T00:15:20;19.50;47.40
27823;DHT22;29019;47.630;8.262;2024-03-17T00:19:21;19.50;47.50
27823;DHT22;29019;47.630;8.262;2024-03-17T00:23:24;19.50;47.40
27823;DHT22;29019;47.630;8.262;2024-03-17T00:27:24;19.50;47.50
27823;DHT22;29019;47.630;8.262;2024-03-17T00:31:25;19.50;47.50
27823;DHT22;29019;47.630;8.262;2024-03-17T00:35:26;19.50;47.60
27823;DHT22;29019;47.630;8.262;2024-03-17T00:39:27;19.60;47.40
27823;DHT22;29019;47.630;8.262;2024-03-17T00:43:27;19.60;47.60
27823;DHT22;29019;47.630;8.262;2024-03-17T00:47:28;19.60;47.50
27823;DHT22;29019;47.630;8.262;2024-03-17T00:51:29;19.60;47.60
27823;DHT22;29019;47.630;8.262;2024-03-17T00:55:30;19.60;47.70
27823;DHT22;29019;47.630;8.262;2024-03-17T00:59:31;19.60;47.60
27823;DHT22;29019;47.630;8.262;2024-03-17T01:03:31;19.60;47.60
27823;DHT22;29019;47.630;8.262;2024-03-17T01:07:33;19.60;47.50
27823;DHT22;29019;47.630;8.262;2024-03-17T01:11:33;19.50;47.40
27823;DHT22;29019;47.630;8.262;2024-03-17T01:15:37;19.60;47.40
27823;DHT22;29019;47.630;8.262;2024-03-17T01:19:38;19.60;47.50
27823;DHT22;29019;47.630;8.262;2024-03-17T01:23:38;19.60;47.50
27823;DHT22;29019;47.630;8.262;2024-03-17T01:27:39;19.60;47.40
27823;DHT22;29019;47.630;8.262;2024-03-17T01:31:40;19.60;47.40
27823;DHT22;29019;47.630;8.262;2024-03-17T01:35:40;19.60;47.90
27823;DHT22;29019;47.630;8.262;2024-03-17T01:39:41;19.60;47.50
27823;DHT22;29019;47.630;8.262;2024-03-17T01:43:41;19.60;47.40
27823;DHT22;29019;47.630;8.262;2024-03-17T01:47:42;19.60;47.50
27823;DHT22;29019;47.630;8.262;2024-03-17T01:51:44;19.60;47.50
27823;DHT22;29019;47.630;8.262;2024-03-17T01:55:45;19.60;47.60
27823;DHT22;29019;47.630;8.262;2024-03-17T01:59:47;19.60;47.50
27823;DHT22;29019;47.630;8.262;2024-03-17T02:03:47;19.60;47.40
27823;DHT22;29019;47.630;8.262;2024-03-17T02:07:48;19.50;47.40
27823;DHT22;29019;47.630;8.262;2024-03-17T02:11:48;19.60;47.60
27823;DHT22;29019;47.630;8.262;2024-03-17T02:15:49;19.50;47.50
27823;DHT22;29019;47.630;8.262;2024-03-17T02:19:51;19.60;47.60
27823;DHT22;29019;47.630;8.262;2024-03-17T02:23:52;19.60;47.70
27823;DHT22;29019;47.630;8.262;2024-03-17T02:27:53;19.50;47.60
27823;DHT22;29019;47.630;8.262;2024-03-17T02:31:54;19.50;47.60
27823;DHT22;29019;47.630;8.262;2024-03-17T02:35:54;19.50;47.60
27823;DHT22;29019;47.630;8.262;2024-03-17T02:39:55;19.50;47.60
27823;DHT22;29019;47.630;8.262;2024-03-17T02:43:55;19.50;47.60
27823;DHT22;29019;47.630;8.262;2024-03-17T02:47:56;19.50;47.70
27823;DHT22;29019;47.630;8.262;2024-03-17T02:51:56;19.50;47.70
27823;DHT22;29019;47.630;8.262;2024-03-17T02:55:57;19.50;47.60
27823;DHT22;29019;47.630;8.262;2024-03-17T02:59:58;19.50;48.30
27823;DHT22;29019;47.630;8.262;2024-03-17T03:03:59;19.50;47.80
27823;DHT22;29019;47.630;8.262;2024-03-17T03:07:59;19.50;47.90
27823;DHT22;29019;47.630;8.262;2024-03-17T03:12:00;19.50;47.90
27823;DHT22;29019;47.630;8.262;2024-03-17T03:16:03;19.50;47.90
27823;DHT22;29019;47.630;8.262;2024-03-17T03:20:04;19.50;47.70
27823;DHT22;29019;47.630;8.262;2024-03-17T03:24:06;19.50;47.70
27823;DHT22;29019;47.630;8.262;2024-03-17T03:28:06;19.50;47.80
27823;DHT22;29019;47.630;8.262;2024-03-17T03:32:07;19.50;47.80
27823;DHT22;29019;47.630;8.262;2024-03-17T03:36:09;19.50;47.70
27823;DHT22;29019;47.630;8.262;2024-03-17T03:40:10;19.40;47.70
27823;DHT22;29019;47.630;8.262;2024-03-17T03:44:16;19.40;47.60
27823;DHT22;29019;47.630;8.262;2024-03-17T03:48:17;19.40;47.00
27823;DHT22;29019;47.630;8.262;2024-03-17T03:52:18;19.50;46.50
27823;DHT22;29019;47.630;8.262;2024-03-17T03:56:19;19.50;46.20
27823;DHT22;29019;47.630;8.262;2024-03-17T04:00:21;19.50;45.80
27823;DHT22;29019;47.630;8.262;2024-03-17T04:04:21;19.60;45.60
27823;DHT22;29019;47.630;8.262;2024-03-17T04:08:22;19.60;45.50
27823;DHT22;29019;47.630;8.262;2024-03-17T04:12:24;19.60;45.30
27823;DHT22;29019;47.630;8.262;2024-03-17T04:16:25;19.60;45.20
27823;DHT22;29019;47.630;8.262;2024-03-17T04:20:26;19.50;45.70
27823;DHT22;29019;47.630;8.262;2024-03-17T04:24:26;19.40;46.60
27823;DHT22;29019;47.630;8.262;2024-03-17T04:28:27;19.30;46.60
27823;DHT22;29019;47.630;8.262;2024-03-17T04:32:28;19.40;46.00
27823;DHT22;29019;47.630;8.262;2024-03-17T04:36:28;19.50;45.60
27823;DHT22;29019;47.630;8.262;2024-03-17T04:40:29;19.50;45.30
27823;DHT22;29019;47.630;8.262;2024-03-17T04:44:30;19.50;45.10
27823;DHT22;29019;47.630;8.262;2024-03-17T04:48:31;19.50;44.90
27823;DHT22;29019;47.630;8.262;2024-03-17T04:52:32;19.60;44.80
27823;DHT22;29019;47.630;8.262;2024-03-17T04:56:33;19.60;44.70
27823;DHT22;29019;47.630;8.262;2024-03-17T05:00:33;19.60;44.50
27823;DHT22;29019;47.630;8.262;2024-03-17T05:04:34;19.60;44.40
27823;DHT22;29019;47.630;8.262;2024-03-17T05:08:34;19.50;45.30
27823;DHT22;29019;47.630;8.262;2024-03-17T05:12:35;19.30;46.30
27823;DHT22;29019;47.630;8.262;2024-03-17T05:16:36;19.20;46.20
27823;DHT22;29019;47.630;8.262;2024-03-17T05:20:36;19.30;45.60
27823;DHT22;29019;47.630;8.262;2024-03-17T05:24:37;19.40;45.10
27823;DHT22;29019;47.630;8.262;2024-03-17T05:28:37;19.40;45.00
27823;DHT22;29019;47.630;8.262;2024-03-17T05:32:38;19.50;44.70
27823;DHT22;29019;47.630;8.262;2024-03-17T05:36:38;19.50;44.60
27823;DHT22;29019;47.630;8.262;2024-03-17T05:40:39;19.50;44.40
27823;DHT22;29019;47.630;8.262;2024-03-17T05:44:41;19.50;44.30
27823;DHT22;29019;47.630;8.262;2024-03-17T05:48:51;19.60;44.20
27823;DHT22;29019;47.630;8.262;2024-03-17T05:52:52;19.60;44.10
27823;DHT22;29019;47.630;8.262;2024-03-17T05:56:52;19.40;45.00
27823;DHT22;29019;47.630;8.262;2024-03-17T06:00:53;19.30;46.00
27823;DHT22;29019;47.630;8.262;2024-03-17T06:04:53;19.30;45.70
27823;DHT22;29019;47.630;8.262;2024-03-17T06:08:55;19.30;45.10
27823;DHT22;29019;47.630;8.262;2024-03-17T06:12:56;19.40;44.80
27823;DHT22;29019;47.630;8.262;2024-03-17T06:16:57;19.50;44.40
27823;DHT22;29019;47.630;8.262;2024-03-17T06:20:58;19.50;44.20
27823;DHT22;29019;47.630;8.262;2024-03-17T06:24:59;19.60;43.90
27823;DHT22;29019;47.630;8.262;2024-03-17T06:29:02;19.60;43.60
27823;DHT22;29019;47.630;8.262;2024-03-17T06:33:03;19.70;43.60
27823;DHT22;29019;47.630;8.262;2024-03-17T06:37:04;19.60;43.50
27823;DHT22;29019;47.630;8.262;2024-03-17T06:41:04;19.70;43.50
27823;DHT22;29019;47.630;8.262;2024-03-17T06:45:05;19.60;44.70
27823;DHT22;29019;47.630;8.262;2024-03-17T06:49:08;19.40;45.40
27823;DHT22;29019;47.630;8.262;2024-03-17T06:53:09;19.50;44.90
27823;DHT22;29019;47.630;8.262;2024-03-17T06:57:10;19.60;44.20
27823;DHT22;29019;47.630;8.262;2024-03-17T07:01:10;19.60;43.90
27823;DHT22;29019;47.630;8.262;2024-03-17T07:05:14;19.60;43.50
27823;DHT22;29019;47.630;8.262;2024-03-17T07:09:15;19.70;43.50
27823;DHT22;29019;47.630;8.262;2024-03-17T07:13:17;19.70;43.30
27823;DHT22;29019;47.630;8.262;2024-03-17T07:17:18;19.70;43.10
27823;DHT22;29019;47.630;8.262;2024-03-17T07:21:18;19.80;43.20
27823;DHT22;29019;47.630;8.262;2024-03-17T07:25:19;19.70;43.00
27823;DHT22;29019;47.630;8.262;2024-03-17T07:29:19;19.70;42.90
27823;DHT22;29019;47.630;8.262;2024-03-17T07:33:20;19.60;44.40
27823;DHT22;29019;47.630;8.262;2024-03-17T07:37:21;19.50;45.10
27823;DHT22;29019;47.630;8.262;2024-03-17T07:41:22;19.50;44.30
27823;DHT22;29019;47.630;8.262;2024-03-17T07:45:24;19.60;43.80
27823;DHT22;29019;47.630;8.262;2024-03-17T07:49:25;19.70;43.60
27823;DHT22;29019;47.630;8.262;2024-03-17T07:53:25;19.70;43.40
27823;DHT22;29019;47.630;8.262;2024-03-17T07:57:27;19.70;43.20
27823;DHT22;29019;47.630;8.262;2024-03-17T08:01:27;19.70;43.00
27823;DHT22;29019;47.630;8.262;2024-03-17T08:05:32;19.70;43.00
27823;DHT22;29019;47.630;8.262;2024-03-17T08:09:32;19.70;42.90
27823;DHT22;29019;47.630;8.262;2024-03-17T08:13:33;19.70;42.90
27823;DHT22;29019;47.630;8.262;2024-03-17T08:17:35;19.70;42.80
27823;DHT22;29019;47.630;8.262;2024-03-17T08:21:35;19.50;44.20
27823;DHT22;29019;47.630;8.262;2024-03-17T08:25:36;19.40;44.90
27823;DHT22;29019;47.630;8.262;2024-03-17T08:29:37;19.40;44.20
27823;DHT22;29019;47.630;8.262;2024-03-17T08:33:37;19.50;43.70
27823;DHT22;29019;47.630;8.262;2024-03-17T08:37:38;19.60;43.40
27823;DHT22;29019;47.630;8.262;2024-03-17T08:41:38;19.60;43.10
27823;DHT22;29019;47.630;8.262;2024-03-17T08:45:39;19.60;42.90
27823;DHT22;29019;47.630;8.262;2024-03-17T08:49:40;19.70;42.80
27823;DHT22;29019;47.630;8.262;2024-03-17T08:53:41;19.70;42.60
27823;DHT22;29019;47.630;8.262;2024-03-17T08:57:42;19.70;42.50
27823;DHT22;29019;47.630;8.262;2024-03-17T09:01:42;19.70;43.00
27823;DHT22;29019;47.630;8.262;2024-03-17T09:05:44;19.70;42.50
27823;DHT22;29019;47.630;8.262;2024-03-17T09:09:48;19.50;44.00
27823;DHT22;29019;47.630;8.262;2024-03-17T09:13:48;19.50;44.40
27823;DHT22;29019;47.630;8.262;2024-03-17T09:17:49;19.60;43.60
27823;DHT22;29019;47.630;8.262;2024-03-17T09:21:49;19.60;43.10
27823;DHT22;29019;47.630;8.262;2024-03-17T09:25:54;19.60;42.90
27823;DHT22;29019;47.630;8.262;2024-03-17T09:29:55;19.70;42.70
27823;DHT22;29019;47.630;8.262;2024-03-17T09:33:55;19.70;42.50
27823;DHT22;29019;47.630;8.262;2024-03-17T09:37:56;19.70;42.40
27823;DHT22;29019;47.630;8.262;2024-03-17T09:41:56;19.70;42.30
27823;DHT22;29019;47.630;8.262;2024-03-17T09:45:58;19.70;42.30
27823;DHT22;29019;47.630;8.262;2024-03-17T09:49:59;19.70;42.20
27823;DHT22;29019;47.630;8.262;2024-03-17T09:53:59;19.70;42.50
27823;DHT22;29019;47.630;8.262;2024-03-17T09:58:00;19.50;43.90
27823;DHT22;29019;47.630;8.262;2024-03-17T10:02:00;19.40;44.20
27823;DHT22;29019;47.630;8.262;2024-03-17T10:06:02;19.50;43.50
27823;DHT22;29019;47.630;8.262;2024-03-17T10:10:21;19.60;43.00
27823;DHT22;29019;47.630;8.262;2024-03-17T10:14:21;19.60;42.70
27823;DHT22;29019;47.630;8.262;2024-03-17T10:18:22;19.70;42.60
27823;DHT22;29019;47.630;8.262;2024-03-17T10:22:23;19.60;42.30
27823;DHT22;29019;47.630;8.262;2024-03-17T10:26:24;19.70;42.30
27823;DHT22;29019;47.630;8.262;2024-03-17T10:30:25;19.70;42.30
27823;DHT22;29019;47.630;8.262;2024-03-17T10:34:34;19.70;42.20
27823;DHT22;29019;47.630;8.262;2024-03-17T10:38:37;19.60;42.20
27823;DHT22;29019;47.630;8.262;2024-03-17T10:42:41;19.60;42.70
27823;DHT22;29019;47.630;8.262;2024-03-17T10:46:41;19.40;43.90
27823;DHT22;29019;47.630;8.262;2024-03-17T10:50:42;19.40;43.80
27823;DHT22;29019;47.630;8.262;2024-03-17T10:54:47;19.50;43.20
27823;DHT22;29019;47.630;8.262;2024-03-17T10:58:48;19.60;42.80
27823;DHT22;29019;47.630;8.262;2024-03-17T11:02:53;19.60;42.50
27823;DHT22;29019;47.630;8.262;2024-03-17T11:06:55;19.60;42.20
27823;DHT22;29019;47.630;8.262;2024-03-17T11:10:58;19.70;42.20
27823;DHT22;29019;47.630;8.262;2024-03-17T11:19:18;19.70;41.90
27823;DHT22;29019;47.630;8.262;2024-03-17T11:23:26;19.70;42.30
27823;DHT22;29019;47.630;8.262;2024-03-17T11:27:39;19.70;41.80
27823;DHT22;29019;47.630;8.262;2024-03-17T11:31:41;19.60;42.90
27823;DHT22;29019;47.630;8.262;2024-03-17T11:35:42;19.40;43.80
27823;DHT22;29019;47.630;8.262;2024-03-17T11:40:01;19.50;43.40
27823;DHT22;29019;47.630;8.262;2024-03-17T11:48:13;19.60;42.40
27823;DHT22;29019;47.630;8.262;2024-03-17T11:52:15;19.60;42.20
27823;DHT22;29019;47.630;8.262;2024-03-17T11:56:22;19.60;42.00
27823;DHT22;29019;47.630;8.262;2024-03-17T12:00:23;19.70;41.90
27823;DHT22;29019;47.630;8.262;2024-03-17T12:04:24;19.70;41.80
27823;DHT22;29019;47.630;8.262;2024-03-17T12:08:25;19.70;41.70
27823;DHT22;29019;47.630;8.262;2024-03-17T12:12:26;19.70;41.60
27823;DHT22;29019;47.630;8.262;2024-03-17T12:16:36;19.70;41.50
27823;DHT22;29019;47.630;8.262;2024-03-17T12:20:37;19.60;43.00
27823;DHT22;29019;47.630;8.262;2024-03-17T12:24:38;19.40;43.60
27823;DHT22;29019;47.630;8.262;2024-03-17T12:28:39;19.50;43.00
27823;DHT22;29019;47.630;8.262;2024-03-17T12:32:39;19.60;42.50
27823;DHT22;29019;47.630;8.262;2024-03-17T12:36:40;19.60;42.20
27823;DHT22;29019;47.630;8.262;2024-03-17T12:40:41;19.60;41.90
27823;DHT22;29019;47.630;8.262;2024-03-17T12:44:48;19.70;41.90
27823;DHT22;29019;47.630;8.262;2024-03-17T12:48:57;19.60;41.70
27823;DHT22;29019;47.630;8.262;2024-03-17T12:52:58;19.70;41.70
27823;DHT22;29019;47.630;8.262;2024-03-17T12:57:08;19.60;41.50
27823;DHT22;29019;47.630;8.262;2024-03-17T13:01:27;19.70;41.50
27823;DHT22;29019;47.630;8.262;2024-03-17T13:05:28;19.60;41.90
27823;DHT22;29019;47.630;8.262;2024-03-17T13:09:29;19.50;43.20
27823;DHT22;29019;47.630;8.262;2024-03-17T13:13:30;19.40;43.40
27823;DHT22;29019;47.630;8.262;2024-03-17T13:17:30;19.50;42.70
27823;DHT22;29019;47.630;8.262;2024-03-17T13:21:34;19.50;42.30
27823;DHT22;29019;47.630;8.262;2024-03-17T13:25:34;19.60;42.10
27823;DHT22;29019;47.630;8.262;2024-03-17T13:29:36;19.60;41.80
27823;DHT22;29019;47.630;8.262;2024-03-17T13:33:37;19.60;41.70
27823;DHT22;29019;47.630;8.262;2024-03-17T13:37:38;19.70;41.60
27823;DHT22;29019;47.630;8.262;2024-03-17T13:41:39;19.70;41.50
27823;DHT22;29019;47.630;8.262;2024-03-17T13:45:40;19.60;41.40
27823;DHT22;29019;47.630;8.262;2024-03-17T13:49:41;19.70;41.40
27823;DHT22;29019;47.630;8.262;2024-03-17T13:53:41;19.60;42.00
27823;DHT22;29019;47.630;8.262;2024-03-17T13:57:45;19.40;43.20
27823;DHT22;29019;47.630;8.262;2024-03-17T14:01:46;19.40;43.30
27823;DHT22;29019;47.630;8.262;2024-03-17T14:05:46;19.40;42.50
27823;DHT22;29019;47.630;8.262;2024-03-17T14:09:47;19.50;42.10
27823;DHT22;29019;47.630;8.262;2024-03-17T14:13:48;19.60;41.90
27823;DHT22;29019;47.630;8.262;2024-03-17T14:17:48;19.60;41.70
27823;DHT22;29019;47.630;8.262;2024-03-17T14:21:50;19.60;41.60
27823;DHT22;29019;47.630;8.262;2024-03-17T14:25:51;19.60;41.40
27823;DHT22;29019;47.630;8.262;2024-03-17T14:29:52;19.70;41.40
27823;DHT22;29019;47.630;8.262;2024-03-17T14:33:52;19.70;41.40
27823;DHT22;29019;47.630;8.262;2024-03-17T14:37:53;19.60;41.30
27823;DHT22;29019;47.630;8.262;2024-03-17T14:41:54;19.60;42.10
27823;DHT22;29019;47.630;8.262;2024-03-17T14:45:54;19.40;43.00
27823;DHT22;29019;47.630;8.262;2024-03-17T14:49:55;19.40;43.00
27823;DHT22;29019;47.630;8.262;2024-03-17T14:53:55;19.50;42.40
27823;DHT22;29019;47.630;8.262;2024-03-17T14:57:56;19.50;42.00
27823;DHT22;29019;47.630;8.262;2024-03-17T15:01:57;19.60;41.70
27823;DHT22;29019;47.630;8.262;2024-03-17T15:05:58;19.60;41.60
27823;DHT22;29019;47.630;8.262;2024-03-17T15:09:59;19.60;41.30
27823;DHT22;29019;47.630;8.262;2024-03-17T15:13:59;19.60;41.20
27823;DHT22;29019;47.630;8.262;2024-03-17T15:18:00;19.70;41.20
27823;DHT22;29019;47.630;8.262;2024-03-17T15:22:00;19.70;41.20
27823;DHT22;29019;47.630;8.262;2024-03-17T15:26:04;19.70;41.60
27823;DHT22;29019;47.630;8.262;2024-03-17T15:30:11;19.60;42.50
27823;DHT22;29019;47.630;8.262;2024-03-17T15:34:14;19.30;43.40
27823;DHT22;29019;47.630;8.262;2024-03-17T15:38:15;19.40;43.40
27823;DHT22;29019;47.630;8.262;2024-03-17T15:42:16;19.50;42.80
27823;DHT22;29019;47.630;8.262;2024-03-17T15:46:18;19.60;42.40
27823;DHT22;29019;47.630;8.262;2024-03-17T15:50:18;19.70;42.30
27823;DHT22;29019;47.630;8.262;2024-03-17T15:54:19;19.70;42.20
27823;DHT22;29019;47.630;8.262;2024-03-17T15:58:19;19.80;42.10
27823;DHT22;29019;47.630;8.262;2024-03-17T16:02:21;19.80;41.90
27823;DHT22;29019;47.630;8.262;2024-03-17T16:06:21;19.90;42.20
27823;DHT22;29019;47.630;8.262;2024-03-17T16:10:22;19.80;42.80
27823;DHT22;29019;47.630;8.262;2024-03-17T16:14:24;19.70;44.20
27823;DHT22;29019;47.630;8.262;2024-03-17T16:18:25;19.70;46.10
27823;DHT22;29019;47.630;8.262;2024-03-17T16:22:26;19.70;46.30
27823;DHT22;29019;47.630;8.262;2024-03-17T16:26:27;19.70;46.60
27823;DHT22;29019;47.630;8.262;2024-03-17T16:30:28;19.80;45.60
27823;DHT22;29019;47.630;8.262;2024-03-17T16:34:29;19.90;45.10
27823;DHT22;29019;47.630;8.262;2024-03-17T16:38:30;19.90;45.10
27823;DHT22;29019;47.630;8.262;2024-03-17T16:42:31;20.00;44.80
27823;DHT22;29019;47.630;8.262;2024-03-17T16:50:51;20.10;44.50
27823;DHT22;29019;47.630;8.262;2024-03-17T16:54:52;20.10;44.20
27823;DHT22;29019;47.630;8.262;2024-03-17T16:58:53;20.10;44.50
27823;DHT22;29019;47.630;8.262;2024-03-17T17:02:54;20.10;44.70
27823;DHT22;29019;47.630;8.262;2024-03-17T17:06:54;20.00;45.60
27823;DHT22;29019;47.630;8.262;2024-03-17T17:10:56;19.90;46.20
27823;DHT22;29019;47.630;8.262;2024-03-17T17:14:57;20.00;45.80
27823;DHT22;29019;47.630;8.262;2024-03-17T17:19:02;20.10;45.10
27823;DHT22;29019;47.630;8.262;2024-03-17T17:23:04;20.20;45.40
27823;DHT22;29019;47.630;8.262;2024-03-17T17:27:05;20.30;45.10
27823;DHT22;29019;47.630;8.262;2024-03-17T17:31:09;20.40;45.30
27823;DHT22;29019;47.630;8.262;2024-03-17T17:35:09;20.40;45.30
27823;DHT22;29019;47.630;8.262;2024-03-17T17:39:10;20.40;44.30
27823;DHT22;29019;47.630;8.262;2024-03-17T17:43:13;20.40;44.50
27823;DHT22;29019;47.630;8.262;2024-03-17T17:47:13;20.50;43.80
27823;DHT22;29019;47.630;8.262;2024-03-17T17:51:14;20.50;43.90
27823;DHT22;29019;47.630;8.262;2024-03-17T17:55:15;20.50;44.90
27823;DHT22;29019;47.630;8.262;2024-03-17T17:59:16;20.40;45.30
27823;DHT22;29019;47.630;8.262;2024-03-17T18:03:17;20.40;44.90
27823;DHT22;29019;47.630;8.262;2024-03-17T18:07:18;20.40;44.80
27823;DHT22;29019;47.630;8.262;2024-03-17T18:11:19;20.50;44.60
27823;DHT22;29019;47.630;8.262;2024-03-17T18:15:20;20.50;44.50
27823;DHT22;29019;47.630;8.262;2024-03-17T18:19:22;20.60;44.20
27823;DHT22;29019;47.630;8.262;2024-03-17T18:23:23;20.70;44.10
27823;DHT22;29019;47.630;8.262;2024-03-17T18:27:23;20.70;43.80
27823;DHT22;29019;47.630;8.262;2024-03-17T18:31:24;20.60;43.60
27823;DHT22;29019;47.630;8.262;2024-03-17T18:35:25;20.60;44.00
27823;DHT22;29019;47.630;8.262;2024-03-17T18:39:25;20.60;43.90
27823;DHT22;29019;47.630;8.262;2024-03-17T18:43:26;20.50;44.90
27823;DHT22;29019;47.630;8.262;2024-03-17T18:47:27;20.40;45.80
27823;DHT22;29019;47.630;8.262;2024-03-17T18:51:28;20.50;46.00
27823;DHT22;29019;47.630;8.262;2024-03-17T18:55:28;20.50;46.10
27823;DHT22;29019;47.630;8.262;2024-03-17T18:59:29;20.50;45.30
27823;DHT22;29019;47.630;8.262;2024-03-17T19:03:29;20.60;44.70
27823;DHT22;29019;47.630;8.262;2024-03-17T19:07:30;20.70;45.50
27823;DHT22;29019;47.630;8.262;2024-03-17T19:11:32;20.70;44.90
27823;DHT22;29019;47.630;8.262;2024-03-17T19:15:33;20.70;45.00
27823;DHT22;29019;47.630;8.262;2024-03-17T19:19:34;20.70;44.20
27823;DHT22;29019;47.630;8.262;2024-03-17T19:23:35;20.70;44.10
27823;DHT22;29019;47.630;8.262;2024-03-17T19:27:36;20.70;44.30
27823;DHT22;29019;47.630;8.262;2024-03-17T19:31:37;20.60;45.00
27823;DHT22;29019;47.630;8.262;2024-03-17T19:35:38;20.60;46.00
27823;DHT22;29019;47.630;8.262;2024-03-17T19:39:40;20.70;45.20
27823;DHT22;29019;47.630;8.262;2024-03-17T19:43:41;20.80;44.70
27823;DHT22;29019;47.630;8.262;2024-03-17T19:47:42;20.80;44.70
27823;DHT22;29019;47.630;8.262;2024-03-17T19:51:43;20.90;44.30
27823;DHT22;29019;47.630;8.262;2024-03-17T19:55:47;20.90;44.60
27823;DHT22;29019;47.630;8.262;2024-03-17T19:59:51;20.90;45.00
27823;DHT22;29019;47.630;8.262;2024-03-17T20:03:51;20.90;45.00
27823;DHT22;29019;47.630;8.262;2024-03-17T20:07:53;20.90;45.50
27823;DHT22;29019;47.630;8.262;2024-03-17T20:11:53;20.90;44.40
27823;DHT22;29019;47.630;8.262;2024-03-17T20:15:54;20.90;45.40
27823;DHT22;29019;47.630;8.262;2024-03-17T20:19:55;20.80;45.70
27823;DHT22;29019;47.630;8.262;2024-03-17T20:23:55;20.70;46.30
27823;DHT22;29019;47.630;8.262;2024-03-17T20:27:57;20.70;46.10
27823;DHT22;29019;47.630;8.262;2024-03-17T20:31:58;20.80;46.30
27823;DHT22;29019;47.630;8.262;2024-03-17T20:36:02;20.80;45.70
27823;DHT22;29019;47.630;8.262;2024-03-17T20:40:02;20.80;44.80
27823;DHT22;29019;47.630;8.262;2024-03-17T20:44:03;20.70;44.40
27823;DHT22;29019;47.630;8.262;2024-03-17T20:48:04;20.50;44.10
27823;DHT22;29019;47.630;8.262;2024-03-17T20:52:04;20.50;44.30
27823;DHT22;29019;47.630;8.262;2024-03-17T20:56:06;20.40;44.10
27823;DHT22;29019;47.630;8.262;2024-03-17T21:00:07;20.40;43.90
27823;DHT22;29019;47.630;8.262;2024-03-17T21:04:17;20.40;44.40
27823;DHT22;29019;47.630;8.262;2024-03-17T21:08:18;20.30;45.20
27823;DHT22;29019;47.630;8.262;2024-03-17T21:12:18;20.20;45.10
27823;DHT22;29019;47.630;8.262;2024-03-17T21:16:19;20.10;44.50
27823;DHT22;29019;47.630;8.262;2024-03-17T21:20:20;20.20;43.90
27823;DHT22;29019;47.630;8.262;2024-03-17T21:24:23;20.20;43.60
27823;DHT22;29019;47.630;8.262;2024-03-17T21:28:24;20.30;43.40
27823;DHT22;29019;47.630;8.262;2024-03-17T21:32:24;20.20;43.20
27823;DHT22;29019;47.630;8.262;2024-03-17T21:36:25;20.20;43.00
27823;DHT22;29019;47.630;8.262;2024-03-17T21:40:26;20.20;43.00
27823;DHT22;29019;47.630;8.262;2024-03-17T21:44:26;20.20;42.90
27823;DHT22;29019;47.630;8.262;2024-03-17T21:48:29;20.20;42.80
27823;DHT22;29019;47.630;8.262;2024-03-17T21:52:29;20.10;43.80
27823;DHT22;29019;47.630;8.262;2024-03-17T21:56:30;19.80;44.90
27823;DHT22;29019;47.630;8.262;2024-03-17T22:00:30;19.90;44.60
27823;DHT22;29019;47.630;8.262;2024-03-17T22:04:31;19.90;44.00
27823;DHT22;29019;47.630;8.262;2024-03-17T22:08:32;20.00;43.70
27823;DHT22;29019;47.630;8.262;2024-03-17T22:12:33;20.00;43.40
27823;DHT22;29019;47.630;8.262;2024-03-17T22:16:33;20.00;43.20
27823;DHT22;29019;47.630;8.262;2024-03-17T22:20:34;20.00;43.10
27823;DHT22;29019;47.630;8.262;2024-03-17T22:24:35;20.00;42.90
27823;DHT22;29019;47.630;8.262;2024-03-17T22:28:36;20.00;42.90
27823;DHT22;29019;47.630;8.262;2024-03-17T22:32:37;20.00;42.80
27823;DHT22;29019;47.630;8.262;2024-03-17T22:36:37;20.00;42.70
27823;DHT22;29019;47.630;8.262;2024-03-17T22:40:38;19.90;43.90
27823;DHT22;29019;47.630;8.262;2024-03-17T22:44:38;19.70;44.90
27823;DHT22;29019;47.630;8.262;2024-03-17T22:48:39;19.70;44.60
27823;DHT22;29019;47.630;8.262;2024-03-17T22:52:41;19.70;44.00
27823;DHT22;29019;47.630;8.262;2024-03-17T22:56:41;19.80;43.60
27823;DHT22;29019;47.630;8.262;2024-03-17T23:00:42;19.80;43.40
27823;DHT22;29019;47.630;8.262;2024-03-17T23:04:43;19.90;43.20
27823;DHT22;29019;47.630;8.262;2024-03-17T23:08:44;19.90;43.70
27823;DHT22;29019;47.630;8.262;2024-03-17T23:12:44;19.90;43.00
27823;DHT22;29019;47.630;8.262;2024-03-17T23:16:45;19.90;42.90
27823;DHT22;29019;47.630;8.262;2024-03-17T23:20:46;19.90;42.80
27823;DHT22;29019;47.630;8.262;2024-03-17T23:24:46;19.80;42.70
27823;DHT22;29019;47.630;8.262;2024-03-17T23:28:47;19.70;43.80
27823;DHT22;29019;47.630;8.262;2024-03-17T23:32:48;19.60;44.80
27823;DHT22;29019;47.630;8.262;2024-03-17T23:36:49;19.60;44.40
27823;DHT22;29019;47.630;8.262;2024-03-17T23:40:49;19.60;43.80
27823;DHT22;29019;47.630;8.262;2024-03-17T23:44:50;19.70;43.50
27823;DHT22;29019;47.630;8.262;2024-03-17T23:48:51;19.70;43.20
27823;DHT22;29019;47.630;8.262;2024-03-17T23:52:51;19.80;43.10
27823;DHT22;29019;47.630;8.262;2024-03-17T23:56:52;19.80;43.00
